Terminal Aerodrome Forecast
Issued by NWS St Louis, MO

Home | Current Version | Previous Version | Graphics & Text | Print | Product List | Glossary On
Versions: 1 2 3 4 5 6 7 8 9 10 11 12 13 14 15 16 17 18 19 20 21 22 23 24 25 26 27 28 29 30 31 32
410
FTUS43 KLSX 220304 AAA
TAFSTL
TAF AMD
KSTL 220304Z 2203/2306 VRB04KT 5SM BR SCT020 BKN120
     FM220600 VRB04KT 3SM BR BKN015
     FM221000 VRB04KT 1/2SM FG BKN008
     FM221500 20006KT 4SM BR BKN010
     FM221800 20008KT P6SM SKC=

USA.gov is the U.S. government's official web portal to all federal, state and local government web resources and services.